Time;durP1;ratioP1;P1;durP2;ratioP2;P2;SDS_P1;SDS_P2;PMS_P1;PMS_P2;Temp;Humidity;BMP_temperature;BMP_pressure;BME280_temperature;BME280_humidity;BME280_pressure;Samples;Min_cycle;Max_cycle;Signal;HPM_P1;HPM_P2
2023/02/04 00:01:35;;;;;;;3.50;1.97;;;;;;;6.16;100.00;97318.63;5038928;28;20290;-68
2023/02/04 00:04:02;;;;;;;2.80;1.77;;;;;;;6.26;100.00;97318.69;5038083;28;20197;-68
2023/02/04 00:06:30;;;;;;;3.07;1.97;;;;;;;6.21;100.00;97311.22;5038208;28;20677;-68
2023/02/04 00:08:56;;;;;;;2.63;1.90;;;;;;;6.22;100.00;97301.56;5038864;28;20197;-68
2023/02/04 00:11:23;;;;;;;3.37;1.80;;;;;;;6.19;100.00;97302.66;5038361;28;20225;-68
2023/02/04 00:13:49;;;;;;;3.60;1.87;;;;;;;6.20;100.00;97306.94;5037750;28;20213;-68
2023/02/04 00:16:15;;;;;;;3.47;1.47;;;;;;;6.25;100.00;97299.53;5038194;28;20201;-68
2023/02/04 00:18:42;;;;;;;2.93;1.90;;;;;;;6.30;100.00;97302.63;5038450;28;20204;-68
2023/02/04 00:21:08;;;;;;;2.97;1.87;;;;;;;6.40;100.00;97297.44;5038511;28;20217;-68
2023/02/04 00:23:36;;;;;;;2.33;1.30;;;;;;;6.57;100.00;97307.34;5037560;28;20818;-68
2023/02/04 00:26:03;;;;;;;2.70;1.50;;;;;;;6.59;100.00;97310.69;5037605;28;20208;-68
2023/02/04 00:28:29;;;;;;;3.70;2.23;;;;;;;6.68;100.00;97313.38;5038336;28;20963;-68
2023/02/04 00:30:56;;;;;;;4.43;1.83;;;;;;;6.83;100.00;97306.84;5038037;28;20217;-68
2023/02/04 00:33:22;;;;;;;7.33;3.10;;;;;;;6.92;100.00;97314.75;5038142;28;20205;-68
2023/02/04 00:35:49;;;;;;;5.83;2.13;;;;;;;6.98;100.00;97316.06;5037395;28;20208;-68
2023/02/04 00:38:16;;;;;;;4.43;2.33;;;;;;;6.94;100.00;97319.91;5037692;28;20221;-68
2023/02/04 00:40:43;;;;;;;5.30;3.00;;;;;;;7.10;100.00;97330.75;5038299;28;20213;-68
2023/02/04 00:43:10;;;;;;;7.93;2.93;;;;;;;7.17;100.00;97334.53;5038620;28;20210;-68
2023/02/04 00:45:36;;;;;;;3.70;1.90;;;;;;;7.14;100.00;97340.84;5037229;28;20580;-68
2023/02/04 00:48:03;;;;;;;6.03;2.90;;;;;;;7.09;100.00;97329.91;5037640;28;20194;-68
2023/02/04 00:50:29;;;;;;;7.20;3.43;;;;;;;7.20;100.00;97335.06;5038088;28;20232;-68
2023/02/04 00:52:58;;;;;;;5.13;2.83;;;;;;;7.19;100.00;97317.66;5038147;28;20204;-68
2023/02/04 00:55:24;;;;;;;5.77;2.57;;;;;;;7.18;100.00;97312.56;5036782;28;21128;-68
2023/02/04 00:57:52;;;;;;;7.83;3.00;;;;;;;7.21;100.00;97307.09;5037424;28;20224;-68
2023/02/04 01:00:19;;;;;;;5.30;2.93;;;;;;;7.16;100.00;97314.50;5037552;28;20228;-68
2023/02/04 01:02:45;;;;;;;4.13;2.47;;;;;;;7.11;100.00;97316.69;5037503;28;20197;-68
2023/02/04 01:05:12;;;;;;;9.47;3.27;;;;;;;7.18;100.00;97317.81;5037039;28;20580;-68
2023/02/04 01:07:38;;;;;;;6.80;3.23;;;;;;;7.23;100.00;97319.09;5037462;28;20197;-68
2023/02/04 01:10:06;;;;;;;9.93;2.40;;;;;;;7.12;100.00;97327.03;5037331;28;20224;-69
2023/02/04 01:12:32;;;;;;;2.67;1.57;;;;;;;7.19;100.00;97309.00;5037562;28;20245;-67
2023/02/04 01:15:00;;;;;;;6.27;2.63;;;;;;;7.39;100.00;97320.25;5036668;28;20208;-67
2023/02/04 01:17:26;;;;;;;7.20;2.30;;;;;;;7.29;100.00;97332.50;5037055;28;20229;-68
2023/02/04 01:19:53;;;;;;;3.40;2.03;;;;;;;7.30;100.00;97323.66;5037394;28;20650;-67
2023/02/04 01:22:20;;;;;;;8.63;2.20;;;;;;;7.35;100.00;97324.09;5037646;28;20588;-67
2023/02/04 01:24:47;;;;;;;4.03;1.73;;;;;;;7.33;100.00;97331.28;5036068;28;20760;-67
2023/02/04 01:27:14;;;;;;;5.93;2.10;;;;;;;7.33;100.00;97341.78;5036812;28;20193;-68
2023/02/04 01:29:41;;;;;;;2.03;1.10;;;;;;;7.30;100.00;97347.25;5037565;28;20641;-67
2023/02/04 01:32:08;;;;;;;2.13;1.33;;;;;;;7.46;100.00;97346.81;5036504;28;20416;-68
2023/02/04 01:34:35;;;;;;;6.50;2.63;;;;;;;7.45;100.00;97350.38;5036498;28;20228;-68
2023/02/04 01:37:01;;;;;;;2.33;1.60;;;;;;;7.44;100.00;97351.34;5036337;28;20662;-68
2023/02/04 01:39:28;;;;;;;4.10;1.87;;;;;;;7.35;100.00;97366.06;5036840;28;20208;-68
2023/02/04 01:41:54;;;;;;;5.93;2.00;;;;;;;7.30;100.00;97365.59;5036827;28;20201;-68
2023/02/04 01:44:21;;;;;;;3.57;1.77;;;;;;;7.35;100.00;97368.69;5036657;28;20209;-67
2023/02/04 01:46:47;;;;;;;3.00;1.97;;;;;;;7.36;100.00;97375.59;5036275;28;20204;-67
2023/02/04 01:49:15;;;;;;;2.60;1.53;;;;;;;7.41;100.00;97373.41;5036276;28;20208;-67
2023/02/04 01:51:42;;;;;;;3.40;1.47;;;;;;;7.30;100.00;97378.72;5037933;28;20193;-68
2023/02/04 01:54:10;;;;;;;1.60;1.33;;;;;;;7.42;100.00;97384.72;5036064;28;20197;-67
2023/02/04 01:56:36;;;;;;;3.07;1.80;;;;;;;7.32;100.00;97389.91;5035979;28;20205;-68
2023/02/04 01:59:11;;;;;;;1.07;0.93;;;;;;;7.35;100.00;97389.66;5036976;28;20220;-67
2023/02/04 02:01:40;;;;;;;1.63;0.87;;;;;;;7.21;100.00;97390.97;5036835;28;20895;-67
2023/02/04 02:04:07;;;;;;;0.97;0.87;;;;;;;6.99;100.00;97391.09;5035817;28;20221;-68
2023/02/04 02:06:36;;;;;;;1.77;1.10;;;;;;;7.22;100.00;97392.59;5036180;28;20197;-67
2023/02/04 02:09:03;;;;;;;0.87;0.67;;;;;;;7.08;100.00;97390.34;5036413;28;20193;-68
2023/02/04 02:11:30;;;;;;;1.13;1.03;;;;;;;7.03;100.00;97392.50;5036408;28;20239;-68
2023/02/04 02:13:57;;;;;;;2.87;1.70;;;;;;;6.99;100.00;97406.81;5036007;28;20201;-67
2023/02/04 02:16:23;;;;;;;2.63;1.73;;;;;;;7.03;100.00;97405.59;5036189;28;20689;-67
2023/02/04 02:18:52;;;;;;;5.00;1.60;;;;;;;6.98;100.00;97413.00;5036391;28;20220;-67
2023/02/04 02:21:23;;;;;;;4.93;2.43;;;;;;;7.13;100.00;97414.34;5036306;28;20766;-68
2023/02/04 02:23:53;;;;;;;6.30;1.80;;;;;;;6.99;100.00;97422.53;5035869;28;20201;-67
2023/02/04 02:26:21;;;;;;;6.47;2.50;;;;;;;7.01;100.00;97425.84;5036406;28;20200;-67
2023/02/04 02:28:49;;;;;;;6.87;2.13;;;;;;;6.96;100.00;97428.88;5036397;28;20224;-67
2023/02/04 02:31:16;;;;;;;4.27;2.10;;;;;;;6.89;100.00;97437.34;5036505;28;20228;-67
2023/02/04 02:33:43;;;;;;;7.83;2.37;;;;;;;6.74;100.00;97444.66;5035568;28;20197;-67
2023/02/04 02:36:10;;;;;;;6.87;2.23;;;;;;;6.66;100.00;97452.31;5035830;28;20224;-67
2023/02/04 02:38:37;;;;;;;6.67;1.50;;;;;;;6.49;100.00;97445.94;5036016;28;20228;-67
2023/02/04 02:41:07;;;;;;;6.90;2.27;;;;;;;6.65;100.00;97443.75;5036418;28;20228;-67
2023/02/04 02:43:35;;;;;;;4.43;1.50;;;;;;;6.63;100.00;97449.09;5035814;28;20209;-67
2023/02/04 02:46:02;;;;;;;5.90;1.60;;;;;;;6.48;100.00;97442.50;5036671;28;20201;-67
2023/02/04 02:48:29;;;;;;;3.37;1.60;;;;;;;6.50;100.00;97444.97;5036686;28;20224;-68
2023/02/04 02:50:55;;;;;;;2.23;1.47;;;;;;;6.47;100.00;97445.25;5040171;28;20229;-67
2023/02/04 02:53:22;;;;;;;5.90;1.33;;;;;;;6.39;100.00;97447.63;5040018;28;20201;-68
2023/02/04 02:55:49;;;;;;;5.47;1.93;;;;;;;6.37;100.00;97450.38;5039476;28;20209;-68
2023/02/04 02:58:24;;;;;;;1.77;1.17;;;;;;;6.50;100.00;97453.66;5039977;28;20240;-67
2023/02/04 03:00:50;;;;;;;6.80;1.87;;;;;;;6.44;100.00;97446.31;5039920;28;20251;-67
2023/02/04 03:03:23;;;;;;;5.43;1.40;;;;;;;6.61;100.00;97458.88;5039129;28;20204;-67
2023/02/04 03:05:54;;;;;;;1.67;1.07;;;;;;;6.57;100.00;97465.31;5039242;28;20209;-67
2023/02/04 03:08:21;;;;;;;4.63;2.30;;;;;;;6.44;100.00;97472.50;5040635;28;20201;-67
2023/02/04 03:10:48;;;;;;;7.20;1.87;;;;;;;6.39;100.00;97479.88;5039517;28;20221;-67
2023/02/04 03:13:17;;;;;;;2.23;1.50;;;;;;;6.41;100.00;97479.75;5039511;28;20205;-67
2023/02/04 03:15:46;;;;;;;2.87;1.73;;;;;;;6.35;100.00;97473.22;5039279;28;20224;-67
2023/02/04 03:18:14;;;;;;;10.73;1.83;;;;;;;6.46;100.00;97475.00;5039970;28;20221;-67
2023/02/04 03:20:41;;;;;;;4.63;1.80;;;;;;;6.30;100.00;97479.75;5039495;28;20248;-67
2023/02/04 03:23:08;;;;;;;3.30;1.50;;;;;;;6.33;100.00;97490.84;5039139;28;20201;-67
2023/02/04 03:25:35;;;;;;;5.50;1.50;;;;;;;6.34;100.00;97487.28;5038820;28;20201;-66
2023/02/04 03:28:01;;;;;;;2.90;1.80;;;;;;;6.33;100.00;97497.88;5039538;28;20197;-67
2023/02/04 03:30:29;;;;;;;6.63;1.60;;;;;;;6.43;100.00;97491.78;5039084;28;20221;-67
2023/02/04 03:32:56;;;;;;;6.97;1.87;;;;;;;6.50;100.00;97492.13;5039348;28;20705;-67
2023/02/04 03:35:23;;;;;;;4.40;2.13;;;;;;;6.51;100.00;97488.56;5038474;28;20205;-66
2023/02/04 03:37:49;;;;;;;5.13;2.27;;;;;;;6.53;100.00;97500.56;5039336;28;20229;-67
2023/02/04 03:40:16;;;;;;;3.80;1.77;;;;;;;6.52;100.00;97506.75;5039164;28;20227;-66
2023/02/04 03:42:42;;;;;;;5.70;1.93;;;;;;;6.40;100.00;97512.97;5039067;28;20208;-67
2023/02/04 03:45:09;;;;;;;6.03;2.27;;;;;;;6.41;100.00;97519.84;5038525;28;20232;-66
2023/02/04 03:47:37;;;;;;;3.03;2.10;;;;;;;6.46;100.00;97511.66;5039020;28;20212;-67
2023/02/04 03:50:04;;;;;;;4.37;2.30;;;;;;;6.52;100.00;97522.47;5036736;28;20220;-67
2023/02/04 03:52:31;;;;;;;4.97;2.60;;;;;;;6.53;100.00;97521.53;5038586;28;20324;-67
2023/02/04 03:54:57;;;;;;;3.60;2.17;;;;;;;6.46;100.00;97522.94;5038549;28;20220;-67
2023/02/04 03:57:24;;;;;;;6.23;2.13;;;;;;;6.39;100.00;97524.38;5039176;28;20217;-67
2023/02/04 03:59:51;;;;;;;2.40;1.77;;;;;;;6.53;100.00;97528.53;5037461;28;20221;-67
2023/02/04 04:02:18;;;;;;;3.73;2.10;;;;;;;6.53;100.00;97537.22;5038751;28;20236;-67
2023/02/04 04:04:45;;;;;;;6.03;2.20;;;;;;;6.61;100.00;97532.22;5037968;28;20246;-67
2023/02/04 04:07:12;;;;;;;4.30;1.90;;;;;;;6.59;100.00;97531.50;5038321;28;20201;-67
2023/02/04 04:09:38;;;;;;;8.63;3.13;;;;;;;6.44;100.00;97529.25;5038995;28;20228;-67
2023/02/04 04:12:05;;;;;;;3.73;2.07;;;;;;;6.43;100.00;97535.44;5039003;28;20202;-67
2023/02/04 04:14:31;;;;;;;11.17;2.63;;;;;;;6.56;100.00;97536.16;5037452;28;20583;-67
2023/02/04 04:16:58;;;;;;;8.80;2.53;;;;;;;6.56;100.00;97534.34;5038506;28;21210;-67
2023/02/04 04:19:24;;;;;;;6.97;2.50;;;;;;;6.45;100.00;97541.41;5039232;28;20235;-67
2023/02/04 04:21:52;;;;;;;8.67;2.80;;;;;;;6.33;100.00;97530.09;5038033;28;20197;-67
2023/02/04 04:24:19;;;;;;;6.60;2.33;;;;;;;6.36;100.00;97531.66;5037280;28;20205;-67
2023/02/04 04:26:45;;;;;;;5.37;2.47;;;;;;;6.22;100.00;97547.59;5039083;28;20208;-67
2023/02/04 04:29:11;;;;;;;6.47;2.47;;;;;;;6.13;100.00;97551.75;5038337;28;21152;-67
2023/02/04 04:31:38;;;;;;;7.97;2.80;;;;;;;6.10;100.00;97552.00;5038195;28;20225;-67
2023/02/04 04:34:04;;;;;;;8.30;3.03;;;;;;;5.96;100.00;97554.00;5037813;28;20197;-67
2023/02/04 04:36:31;;;;;;;9.73;2.77;;;;;;;5.97;100.00;97550.44;5037455;28;20209;-66
2023/02/04 04:38:58;;;;;;;7.37;3.20;;;;;;;5.96;100.00;97553.16;5037524;28;20225;-67
2023/02/04 04:41:25;;;;;;;6.73;2.57;;;;;;;5.76;100.00;97557.28;5037619;28;20225;-68
2023/02/04 04:43:51;;;;;;;13.70;2.97;;;;;;;5.80;100.00;97557.91;5036478;28;20674;-67
2023/02/04 04:46:18;;;;;;;11.17;2.93;;;;;;;5.73;100.00;97551.44;5037056;28;20210;-67
2023/02/04 04:48:44;;;;;;;9.70;3.17;;;;;;;5.65;100.00;97564.25;5037339;28;20208;-67
2023/02/04 04:51:10;;;;;;;5.93;2.10;;;;;;;5.56;100.00;97562.31;5037334;28;20223;-66
2023/02/04 04:53:37;;;;;;;3.67;2.07;;;;;;;5.50;100.00;97578.47;5036499;28;20213;-66
2023/02/04 04:56:05;;;;;;;13.83;3.13;;;;;;;5.54;100.00;97577.31;5036592;28;20212;-66
2023/02/04 04:58:31;;;;;;;12.10;2.80;;;;;;;5.52;100.00;97572.19;5036955;28;20221;-67
2023/02/04 05:00:58;;;;;;;4.63;2.30;;;;;;;5.39;100.00;97573.19;5037298;28;20347;-67
2023/02/04 05:03:24;;;;;;;10.43;2.63;;;;;;;5.29;100.00;97576.63;5036832;28;20544;-67
2023/02/04 05:05:51;;;;;;;11.40;2.70;;;;;;;5.29;100.00;97579.22;5036325;28;20205;-67
2023/02/04 05:08:19;;;;;;;12.67;2.70;;;;;;;5.27;100.00;97583.72;5037002;28;20212;-67
2023/02/04 05:10:45;;;;;;;9.40;3.10;;;;;;;5.32;100.00;97582.47;5036444;28;20225;-67
2023/02/04 05:13:13;;;;;;;5.50;2.17;;;;;;;5.25;100.00;97586.44;5036894;28;20201;-67
2023/02/04 05:15:41;;;;;;;12.97;3.10;;;;;;;5.18;100.00;97593.09;5036245;28;20212;-67
2023/02/04 05:18:07;;;;;;;4.90;2.10;;;;;;;5.00;100.00;97601.41;5036410;28;20237;-67
2023/02/04 05:20:34;;;;;;;9.90;2.80;;;;;;;5.00;100.00;97607.47;5036345;28;20229;-67
2023/02/04 05:23:00;;;;;;;11.37;2.90;;;;;;;4.98;100.00;97609.34;5036918;28;20208;-68
2023/02/04 05:25:27;;;;;;;22.53;2.50;;;;;;;4.94;100.00;97618.34;5035616;28;20214;-67
2023/02/04 05:27:53;;;;;;;10.70;2.37;;;;;;;5.13;100.00;97617.84;5036267;28;20228;-68
2023/02/04 05:30:21;;;;;;;6.57;2.27;;;;;;;5.18;100.00;97629.66;5036746;28;20228;-68
2023/02/04 05:32:47;;;;;;;17.20;2.70;;;;;;;5.11;100.00;97628.41;5037251;28;20224;-68
2023/02/04 05:35:15;;;;;;;8.90;2.67;;;;;;;5.23;100.00;97617.09;5035096;28;20480;-68
2023/02/04 05:37:41;;;;;;;13.60;2.73;;;;;;;5.15;100.00;97637.69;5036255;28;20201;-67
2023/02/04 05:40:09;;;;;;;8.10;2.70;;;;;;;5.21;100.00;97629.44;5036638;28;20225;-68
2023/02/04 05:42:35;;;;;;;12.57;2.53;;;;;;;5.16;100.00;97628.94;5035948;28;20197;-68
2023/02/04 05:45:02;;;;;;;15.23;2.90;;;;;;;5.18;100.00;97627.06;5035556;28;20197;-68
2023/02/04 05:47:29;;;;;;;5.97;2.43;;;;;;;5.34;100.00;97637.22;5036390;28;20201;-68
2023/02/04 05:49:56;;;;;;;12.50;2.90;;;;;;;5.26;100.00;97637.78;5035924;28;21069;-68
2023/02/04 05:52:22;;;;;;;7.77;3.10;;;;;;;5.22;100.00;97633.72;5036048;28;20588;-68
2023/02/04 05:54:49;;;;;;;7.93;2.60;;;;;;;5.08;100.00;97641.72;5035385;28;20689;-68
2023/02/04 05:57:15;;;;;;;12.23;3.60;;;;;;;4.99;100.00;97647.59;5035804;28;20472;-67
2023/02/04 05:59:42;;;;;;;14.77;3.87;;;;;;;4.68;100.00;97642.03;5035824;28;20231;-68
2023/02/04 06:02:08;;;;;;;11.07;3.90;;;;;;;4.74;100.00;97656.44;5036236;28;20201;-68
2023/02/04 06:04:36;;;;;;;5.73;2.60;;;;;;;4.72;100.00;97659.13;5035061;28;21261;-67
2023/02/04 06:07:03;;;;;;;9.03;2.30;;;;;;;4.65;100.00;97668.34;5035733;28;20209;-67
2023/02/04 06:09:29;;;;;;;9.37;3.10;;;;;;;4.53;100.00;97670.97;5035918;28;20264;-67
2023/02/04 06:11:56;;;;;;;10.00;2.50;;;;;;;4.36;100.00;97669.50;5036728;28;20212;-68
2023/02/04 06:14:22;;;;;;;9.67;2.37;;;;;;;4.27;100.00;97669.31;5035488;28;20677;-68
2023/02/04 06:16:49;;;;;;;9.07;2.60;;;;;;;4.25;100.00;97674.66;5036433;28;20205;-68
2023/02/04 06:19:15;;;;;;;7.67;2.77;;;;;;;4.34;100.00;97667.94;5036676;28;21428;-68
2023/02/04 06:21:43;;;;;;;4.97;2.20;;;;;;;4.40;100.00;97667.53;5036703;28;20566;-68
2023/02/04 06:24:10;;;;;;;6.20;2.37;;;;;;;4.34;100.00;97670.56;5034735;28;20335;-68
2023/02/04 06:26:36;;;;;;;13.97;2.83;;;;;;;4.39;100.00;97671.06;5036386;28;20201;-68
2023/02/04 06:29:03;;;;;;;10.37;2.43;;;;;;;4.54;100.00;97675.25;5036742;28;20212;-68
2023/02/04 06:31:29;;;;;;;16.00;3.23;;;;;;;4.62;100.00;97672.94;5036156;28;20232;-68
2023/02/04 06:33:55;;;;;;;5.30;2.57;;;;;;;4.63;100.00;97683.28;5036087;28;20217;-68
2023/02/04 06:36:22;;;;;;;7.13;2.53;;;;;;;4.65;100.00;97688.41;5035954;28;20201;-68
2023/02/04 06:38:50;;;;;;;11.03;2.70;;;;;;;4.74;100.00;97695.59;5036308;28;20232;-68
2023/02/04 06:41:16;;;;;;;8.27;2.47;;;;;;;4.69;100.00;97705.53;5035597;28;20724;-68
2023/02/04 06:43:43;;;;;;;6.47;2.47;;;;;;;4.84;100.00;97705.31;5035862;28;20207;-68
2023/02/04 06:46:09;;;;;;;18.13;3.20;;;;;;;4.85;100.00;97707.81;5035985;28;20212;-68
2023/02/04 06:48:35;;;;;;;9.43;2.97;;;;;;;4.88;100.00;97706.75;5035844;28;20217;-67
2023/02/04 06:51:02;;;;;;;5.77;2.70;;;;;;;4.93;100.00;97708.09;5036445;28;20221;-68
2023/02/04 06:53:28;;;;;;;7.00;2.77;;;;;;;4.95;100.00;97708.84;5035721;28;20220;-68
2023/02/04 06:55:56;;;;;;;17.17;2.67;;;;;;;5.01;100.00;97708.38;5036048;28;20213;-67
2023/02/04 06:58:22;;;;;;;9.33;3.13;;;;;;;4.93;100.00;97718.53;5035770;28;20216;-68
2023/02/04 07:00:49;;;;;;;10.97;3.17;;;;;;;4.97;100.00;97722.59;5035795;28;20709;-68
2023/02/04 07:03:15;;;;;;;10.83;3.07;;;;;;;4.93;100.00;97723.75;5036541;28;20208;-68
2023/02/04 07:05:42;;;;;;;17.00;3.20;;;;;;;4.87;100.00;97731.19;5034870;28;20205;-68
2023/02/04 07:08:08;;;;;;;17.20;3.83;;;;;;;4.91;100.00;97733.50;5036569;28;20216;-68
2023/02/04 07:10:35;;;;;;;9.87;3.40;;;;;;;4.94;100.00;97733.28;5036276;28;20225;-68
2023/02/04 07:13:02;;;;;;;16.03;3.17;;;;;;;5.16;100.00;97740.47;5035632;28;20716;-68
2023/02/04 07:15:30;;;;;;;9.70;2.50;;;;;;;5.01;100.00;97734.50;5036054;28;20217;-68
2023/02/04 07:17:56;;;;;;;13.80;2.80;;;;;;;5.13;100.00;97738.91;5037086;28;20203;-68
2023/02/04 07:20:23;;;;;;;9.63;2.57;;;;;;;5.21;100.00;97747.03;5037022;28;20226;-67
2023/02/04 07:22:49;;;;;;;15.17;3.10;;;;;;;5.21;100.00;97747.03;5035349;28;20200;-68
2023/02/04 07:25:16;;;;;;;15.57;3.10;;;;;;;5.28;100.00;97748.25;5035902;28;20216;-68
2023/02/04 07:27:43;;;;;;;9.17;2.90;;;;;;;5.38;100.00;97745.84;5035449;28;20205;-68
2023/02/04 07:30:12;;;;;;;11.20;3.53;;;;;;;5.46;100.00;97747.78;5035596;28;20245;-67
2023/02/04 07:32:39;;;;;;;13.87;3.10;;;;;;;5.46;100.00;97757.44;5035847;28;20973;-68
2023/02/04 07:35:06;;;;;;;8.90;2.83;;;;;;;5.47;100.00;97766.91;5035265;28;20685;-68
2023/02/04 07:37:33;;;;;;;4.90;2.33;;;;;;;5.38;100.00;97764.94;5038816;28;20923;-68
2023/02/04 07:39:59;;;;;;;7.60;2.63;;;;;;;5.35;100.00;97767.78;5039204;28;20221;-68
2023/02/04 07:42:25;;;;;;;9.47;2.73;;;;;;;5.23;100.00;97770.44;5039415;28;20209;-68
2023/02/04 07:44:52;;;;;;;11.83;3.43;;;;;;;5.39;100.00;97778.88;5038517;28;20204;-68
2023/02/04 07:47:20;;;;;;;8.60;2.63;;;;;;;5.58;100.00;97773.03;5039410;28;20244;-68
2023/02/04 07:49:46;;;;;;;10.03;2.77;;;;;;;5.55;100.00;97777.69;5038695;28;20216;-68
2023/02/04 07:52:12;;;;;;;14.03;3.23;;;;;;;5.70;100.00;97772.19;5038878;28;20216;-68
2023/02/04 07:54:39;;;;;;;10.30;3.13;;;;;;;5.72;100.00;97782.53;5038216;28;20209;-68
2023/02/04 07:57:05;;;;;;;9.53;3.00;;;;;;;5.78;100.00;97784.72;5038666;28;20551;-68
2023/02/04 07:59:32;;;;;;;10.40;2.73;;;;;;;5.85;100.00;97791.19;5038366;28;20237;-68
2023/02/04 08:01:58;;;;;;;7.67;3.17;;;;;;;5.87;100.00;97791.91;5038909;28;20201;-68
2023/02/04 08:04:26;;;;;;;7.03;2.90;;;;;;;6.07;100.00;97803.44;5038154;28;20684;-68
2023/02/04 08:06:53;;;;;;;8.43;3.00;;;;;;;6.03;100.00;97806.38;5038460;28;20205;-68
2023/02/04 08:09:19;;;;;;;9.73;2.60;;;;;;;6.16;100.00;97808.00;5038632;28;20201;-68
2023/02/04 08:11:46;;;;;;;10.07;3.17;;;;;;;6.07;98.82;97811.28;5038693;28;20201;-68
2023/02/04 08:14:12;;;;;;;10.27;2.30;;;;;;;6.25;98.15;97817.81;5038192;28;20577;-68
2023/02/04 08:16:39;;;;;;;7.77;2.20;;;;;;;6.18;94.79;97821.78;5038436;28;20205;-68
2023/02/04 08:19:05;;;;;;;9.43;2.33;;;;;;;6.21;95.96;97821.59;5038541;28;20840;-68
2023/02/04 08:21:33;;;;;;;10.53;2.00;;;;;;;6.35;93.98;97829.28;5038382;28;20217;-69
2023/02/04 08:23:59;;;;;;;8.80;2.20;;;;;;;6.23;95.45;97830.16;5037378;28;20197;-69
2023/02/04 08:26:26;;;;;;;12.60;2.50;;;;;;;6.29;93.98;97832.31;5038242;28;20205;-68
2023/02/04 08:28:52;;;;;;;15.33;2.70;;;;;;;6.21;92.25;97834.69;5039248;28;20205;-69
2023/02/04 08:31:19;;;;;;;10.20;1.83;;;;;;;6.37;92.79;97835.22;5037313;28;20241;-69
2023/02/04 08:33:45;;;;;;;8.97;2.03;;;;;;;6.31;91.20;97840.91;5036218;28;20449;-68
2023/02/04 08:36:12;;;;;;;5.60;1.80;;;;;;;6.33;92.22;97846.88;5038431;28;20681;-68
2023/02/04 08:38:40;;;;;;;7.27;2.27;;;;;;;6.46;92.62;97841.56;5038217;28;20408;-69
2023/02/04 08:41:06;;;;;;;15.93;2.07;;;;;;;6.37;91.55;97843.06;5037447;28;20225;-69
2023/02/04 08:43:33;;;;;;;10.50;1.90;;;;;;;6.29;90.74;97837.56;5037865;28;20596;-69
2023/02/04 08:45:59;;;;;;;7.20;2.00;;;;;;;6.40;91.58;97837.63;5037186;28;20197;-68
2023/02/04 08:48:26;;;;;;;18.57;2.83;;;;;;;6.48;94.29;97835.28;5037498;28;20209;-69
2023/02/04 08:50:52;;;;;;;9.83;2.73;;;;;;;6.64;93.41;97841.03;5037637;28;20217;-69
2023/02/04 08:53:19;;;;;;;12.47;2.60;;;;;;;6.62;91.84;97834.22;5038051;28;20201;-68
2023/02/04 08:55:47;;;;;;;7.87;2.10;;;;;;;6.77;92.42;97842.63;5036696;28;20802;-69
2023/02/04 08:58:13;;;;;;;9.27;2.03;;;;;;;6.48;91.27;97840.50;5037872;28;20228;-69
2023/02/04 09:00:40;;;;;;;6.47;2.17;;;;;;;6.37;90.79;97844.88;5037672;28;20236;-69
2023/02/04 09:03:06;;;;;;;13.23;2.23;;;;;;;6.36;91.07;97849.25;5037581;28;20201;-68
2023/02/04 09:05:33;;;;;;;11.13;2.23;;;;;;;6.47;92.31;97846.69;5036900;28;20918;-69
2023/02/04 09:07:59;;;;;;;4.60;1.30;;;;;;;6.36;91.65;97867.56;5037469;28;20201;-69
2023/02/04 09:10:26;;;;;;;8.23;1.83;;;;;;;6.42;90.38;97866.31;5036691;28;20240;-69
2023/02/04 09:12:54;;;;;;;7.47;1.73;;;;;;;6.46;90.94;97867.75;5036859;28;20556;-68
2023/02/04 09:15:22;;;;;;;6.93;1.70;;;;;;;6.55;91.77;97865.28;5036275;28;20208;-69
2023/02/04 09:17:49;;;;;;;5.90;1.67;;;;;;;6.62;90.72;97858.66;5037497;28;20216;-69
2023/02/04 09:20:15;;;;;;;10.73;1.40;;;;;;;6.75;89.63;97856.78;5036946;28;20785;-69
2023/02/04 09:22:42;;;;;;;8.53;1.97;;;;;;;6.76;89.27;97861.91;5036676;28;20209;-69
2023/02/04 09:25:08;;;;;;;6.83;1.60;;;;;;;6.81;87.26;97848.44;5036955;28;20208;-69
2023/02/04 09:27:35;;;;;;;10.30;2.00;;;;;;;6.81;86.52;97853.69;5036794;28;20216;-69
2023/02/04 09:30:03;;;;;;;10.77;1.63;;;;;;;6.96;88.17;97863.03;5036627;28;20221;-68
2023/02/04 09:32:30;;;;;;;8.57;1.93;;;;;;;6.93;86.25;97866.72;5037407;28;20205;-68
2023/02/04 09:34:56;;;;;;;8.73;2.03;;;;;;;6.98;88.81;97867.19;5036462;28;20635;-69
2023/02/04 09:37:25;;;;;;;6.43;1.70;;;;;;;6.84;92.16;97875.25;5036520;28;20205;-69
2023/02/04 09:39:53;;;;;;;11.40;2.07;;;;;;;6.72;91.75;97880.56;5037277;28;20236;-69
2023/02/04 09:42:23;;;;;;;14.00;2.37;;;;;;;6.82;90.78;97886.81;5035907;28;20584;-69
2023/02/04 09:44:50;;;;;;;16.17;2.27;;;;;;;6.71;89.20;97885.00;5035766;28;20235;-69
2023/02/04 09:47:21;;;;;;;13.90;1.87;;;;;;;6.81;88.80;97885.13;5036970;28;20202;-69
2023/02/04 09:49:47;;;;;;;15.83;2.13;;;;;;;6.71;86.10;97884.16;5034457;28;20425;-69
2023/02/04 09:52:16;;;;;;;7.73;1.37;;;;;;;6.87;86.10;97875.06;5034217;28;20200;-69
2023/02/04 09:54:43;;;;;;;11.13;2.47;;;;;;;6.99;88.60;97883.78;5034210;28;20780;-69
2023/02/04 09:57:14;;;;;;;5.87;1.50;;;;;;;7.14;87.29;97880.84;5034796;28;20197;-68
2023/02/04 09:59:42;;;;;;;9.77;1.93;;;;;;;7.13;88.62;97886.16;5034247;28;20221;-69
2023/02/04 10:02:20;;;;;;;4.50;1.23;;;;;;;7.06;88.48;97890.22;5034934;28;20205;-69
2023/02/04 10:04:47;;;;;;;7.87;1.80;;;;;;;6.79;86.80;97887.03;5034156;28;20778;-68
2023/02/04 10:07:25;;;;;;;9.83;1.60;;;;;;;7.16;91.34;97878.91;5034581;28;20212;-68
2023/02/04 10:09:53;;;;;;;11.80;1.57;;;;;;;7.31;84.88;97886.44;5035440;28;20224;-69
2023/02/04 10:12:20;;;;;;;9.07;1.70;;;;;;;7.31;84.86;97889.06;5035153;28;20201;-69
2023/02/04 10:14:47;;;;;;;9.97;1.90;;;;;;;7.27;87.07;97895.50;5034248;28;20205;-69
2023/02/04 10:17:18;;;;;;;16.57;2.27;;;;;;;7.43;84.92;97895.16;5035321;28;20209;-68
2023/02/04 10:19:46;;;;;;;6.57;1.83;;;;;;;7.33;82.54;97899.44;5035555;28;20245;-69
2023/02/04 10:22:17;;;;;;;6.27;1.40;;;;;;;7.33;84.75;97900.28;5035090;28;20209;-68
2023/02/04 10:24:43;;;;;;;7.57;1.60;;;;;;;7.19;86.12;97901.44;5034731;28;20197;-69
2023/02/04 10:27:14;;;;;;;10.43;2.10;;;;;;;7.18;83.35;97905.00;5035973;28;20208;-69
2023/02/04 10:29:42;;;;;;;12.80;1.50;;;;;;;6.97;88.22;97898.78;5035909;28;20229;-67
2023/02/04 10:32:27;;;;;;;9.20;1.53;;;;;;;6.91;88.33;97904.47;5035714;28;20201;-69
2023/02/04 10:34:59;;;;;;;8.53;2.03;;;;;;;6.74;89.60;97908.31;5035647;28;20197;-69
2023/02/04 10:37:26;;;;;;;5.73;1.13;;;;;;;6.68;86.46;97902.72;5036150;28;20213;-69
2023/02/04 10:39:52;;;;;;;7.90;1.97;;;;;;;6.72;88.37;97905.00;5035987;28;20221;-69
2023/02/04 10:42:22;;;;;;;11.13;2.00;;;;;;;6.86;90.10;97896.09;5034809;28;21058;-69
2023/02/04 10:44:48;;;;;;;13.37;1.50;;;;;;;6.71;87.32;97897.25;5034919;28;21035;-69
2023/02/04 10:47:17;;;;;;;8.13;1.80;;;;;;;6.87;89.72;97897.78;5036141;28;20232;-69
2023/02/04 10:49:53;;;;;;;5.73;1.33;;;;;;;7.03;87.80;97895.69;5035506;28;20702;-69
2023/02/04 10:52:23;;;;;;;4.47;1.20;;;;;;;6.77;89.19;97891.53;5035662;28;20703;-69
2023/02/04 10:54:50;;;;;;;7.20;1.63;;;;;;;6.58;89.37;97893.03;5035825;28;20220;-69
2023/02/04 10:57:19;;;;;;;9.40;2.10;;;;;;;6.73;91.75;97893.59;5035774;28;20670;-69
2023/02/04 10:59:47;;;;;;;6.07;1.53;;;;;;;6.56;93.43;97895.75;5035879;28;20221;-69
2023/02/04 11:02:41;;;;;;;4.83;1.40;;;;;;;6.47;93.64;97901.69;5036432;28;20205;-69
2023/02/04 11:05:12;;;;;;;4.53;1.67;;;;;;;6.40;91.85;97902.22;5035388;28;20666;-69
2023/02/04 11:07:40;;;;;;;2.60;1.10;;;;;;;6.41;91.65;97898.66;5035641;28;20205;-69
2023/02/04 11:10:13;;;;;;;8.87;1.60;;;;;;;6.61;90.22;97893.66;5037713;28;20225;-69
2023/02/04 11:12:42;;;;;;;7.37;1.83;;;;;;;6.54;91.75;97899.44;5039856;28;20258;-69
2023/02/04 11:15:38;;;;;;;10.83;1.57;;;;;;;6.62;93.61;97887.47;5038787;28;20300;-69
2023/02/04 11:18:05;;;;;;;6.43;1.80;;;;;;;6.62;90.83;97886.59;5039607;28;20205;-69
2023/02/04 11:20:38;;;;;;;6.77;1.70;;;;;;;6.73;91.68;97888.34;5039727;28;20225;-69
2023/02/04 11:23:28;;;;;;;9.77;1.57;;;;;;;6.55;94.29;97891.47;5039718;28;20201;-69
2023/02/04 11:26:03;;;;;;;4.87;1.13;;;;;;;6.64;92.37;97893.41;5039566;28;20887;-69
2023/02/04 11:28:44;;;;;;;7.47;2.23;;;;;;;6.88;90.67;97892.41;5039308;28;20262;-70
2023/02/04 11:31:15;;;;;;;11.13;2.67;;;;;;;6.84;92.35;97893.59;5039064;28;20228;-69
2023/02/04 11:33:42;;;;;;;6.60;1.73;;;;;;;7.00;90.80;97888.03;5038713;28;20205;-69
2023/02/04 11:36:12;;;;;;;11.10;1.90;;;;;;;7.04;90.98;97886.84;5039634;28;20197;-69